Time;durP1;ratioP1;P1;durP2;ratioP2;P2;SDS_P1;SDS_P2;PMS_P1;PMS_P2;Temp;Humidity;BMP_temperature;BMP_pressure;BME280_temperature;BME280_humidity;BME280_pressure;Samples;Min_cycle;Max_cycle;Signal;HPM_P1;HPM_P2
2023/06/09 00:00:46;;;;;;;7.85;5.35;;;;;;;23.60;74.09;99861.63;5091837;28;20399;-63
2023/06/09 00:03:16;;;;;;;6.97;5.25;;;;;;;23.60;74.17;99858.88;5092004;28;20098;-63
2023/06/09 00:05:46;;;;;;;7.78;5.63;;;;;;;23.59;74.22;99851.75;5091710;28;20040;-63
2023/06/09 00:08:15;;;;;;;7.25;5.70;;;;;;;23.58;74.37;99847.31;5091374;28;20055;-63
2023/06/09 00:10:43;;;;;;;8.85;5.57;;;;;;;23.58;74.23;99852.75;5091500;28;20048;-63
2023/06/09 00:13:11;;;;;;;9.55;6.07;;;;;;;23.57;74.27;99853.78;5091438;28;20571;-63
2023/06/09 00:15:39;;;;;;;8.65;5.63;;;;;;;23.56;74.32;99855.66;5091751;28;20052;-63
2023/06/09 00:18:09;;;;;;;8.75;5.63;;;;;;;23.56;74.56;99852.09;5091640;28;20123;-63
2023/06/09 00:20:38;;;;;;;9.65;5.75;;;;;;;23.55;74.41;99861.31;5091561;28;20086;-63
2023/06/09 00:23:07;;;;;;;7.50;5.88;;;;;;;23.55;74.66;99858.59;5091463;28;20048;-63
2023/06/09 00:25:36;;;;;;;7.93;6.10;;;;;;;23.54;74.30;99862.31;5091545;28;20044;-63
2023/06/09 00:28:04;;;;;;;9.73;6.80;;;;;;;23.54;74.66;99859.59;5091428;28;20044;-63
2023/06/09 00:30:32;;;;;;;9.73;6.30;;;;;;;23.53;74.74;99855.19;5091427;28;20083;-63
2023/06/09 00:33:08;;;;;;;7.35;6.00;;;;;;;23.52;74.85;99848.03;5091559;28;20044;-63
2023/06/09 00:35:36;;;;;;;9.32;6.65;;;;;;;23.52;75.06;99842.59;5091511;28;20130;-63
2023/06/09 00:38:05;;;;;;;8.25;6.57;;;;;;;23.51;75.14;99838.19;5094619;28;20044;-63
2023/06/09 00:40:33;;;;;;;9.55;7.15;;;;;;;23.51;75.11;99846.34;5095479;28;20062;-63
2023/06/09 00:43:01;;;;;;;8.73;6.72;;;;;;;23.49;75.38;99837.53;5095569;28;20044;-64
2023/06/09 00:45:29;;;;;;;7.95;6.97;;;;;;;23.49;75.28;99838.38;5095294;28;20564;-63
2023/06/09 00:47:58;;;;;;;8.77;6.90;;;;;;;23.47;75.28;99837.72;5095541;28;20255;-63
2023/06/09 00:50:27;;;;;;;8.65;7.00;;;;;;;23.49;75.36;99838.38;5095246;28;20048;-63
2023/06/09 00:52:57;;;;;;;8.75;6.78;;;;;;;23.47;75.39;99845.06;5095381;28;20055;-63
2023/06/09 00:55:26;;;;;;;9.98;7.47;;;;;;;23.47;75.54;99845.91;5095428;28;20044;-63
2023/06/09 00:57:56;;;;;;;8.82;7.13;;;;;;;23.47;75.50;99840.44;5095128;28;20090;-63
2023/06/09 01:00:27;;;;;;;9.30;7.10;;;;;;;23.46;75.59;99838.75;5095127;28;20052;-63
2023/06/09 01:03:00;;;;;;;8.07;6.95;;;;;;;23.46;75.59;99824.31;5094986;28;20454;-63
2023/06/09 01:05:32;;;;;;;9.73;7.38;;;;;;;23.43;75.27;99818.19;5094873;28;20081;-62
2023/06/09 01:08:07;;;;;;;9.48;7.13;;;;;;;23.45;75.67;99808.97;5094805;28;20067;-63
2023/06/09 01:10:42;;;;;;;8.95;7.63;;;;;;;23.43;75.78;99801.00;5094977;28;20124;-63
2023/06/09 01:13:16;;;;;;;8.98;7.30;;;;;;;23.41;75.74;99795.75;5094767;28;20062;-63
2023/06/09 01:15:53;;;;;;;8.57;7.43;;;;;;;23.42;75.71;99783.00;5094647;28;20052;-63
2023/06/09 01:18:25;;;;;;;9.73;7.60;;;;;;;23.41;75.93;99781.31;5094793;28;20048;-63
2023/06/09 01:21:06;;;;;;;8.50;7.23;;;;;;;23.41;75.89;99775.88;5094820;28;20419;-63
2023/06/09 01:23:44;;;;;;;9.38;7.55;;;;;;;23.39;75.79;99776.06;5094526;28;20280;-63
2023/06/09 01:26:15;;;;;;;9.50;7.32;;;;;;;23.39;75.57;99776.06;5094429;28;20055;-63
2023/06/09 01:28:46;;;;;;;8.73;7.72;;;;;;;23.39;75.77;99778.78;5094694;28;20052;-63
2023/06/09 01:31:16;;;;;;;10.00;7.22;;;;;;;23.37;75.82;99769.97;5094582;28;20134;-63
2023/06/09 01:33:45;;;;;;;9.45;7.40;;;;;;;23.37;75.91;99767.25;5094619;28;20051;-62
2023/06/09 01:36:15;;;;;;;10.40;7.55;;;;;;;23.37;75.95;99775.41;5094298;28;20408;-63
2023/06/09 01:38:44;;;;;;;9.63;7.35;;;;;;;23.36;75.84;99767.44;5094296;28;20044;-63
2023/06/09 01:41:14;;;;;;;9.98;7.43;;;;;;;23.36;76.03;99770.16;5094476;28;20123;-63
2023/06/09 01:43:42;;;;;;;9.60;7.68;;;;;;;23.35;75.98;99763.84;5094281;28;20400;-63
2023/06/09 01:46:10;;;;;;;9.90;7.72;;;;;;;23.35;76.18;99777.44;5094244;28;20521;-63
2023/06/09 01:48:57;;;;;;;9.68;8.00;;;;;;;23.35;76.22;99780.16;5093406;28;20075;-63
2023/06/09 01:51:35;;;;;;;11.07;8.27;;;;;;;23.34;76.16;99781.19;5094015;28;20123;-63
2023/06/09 01:54:09;;;;;;;9.15;7.72;;;;;;;23.34;76.33;99781.19;5094276;28;20044;-63
2023/06/09 01:56:43;;;;;;;10.95;7.65;;;;;;;23.34;76.22;99786.63;5094183;28;20083;-62
2023/06/09 01:59:16;;;;;;;9.80;7.75;;;;;;;23.33;76.38;99793.13;5094099;28;20409;-63
2023/06/09 02:01:47;;;;;;;10.65;8.30;;;;;;;23.33;76.28;99793.13;5093851;28;20044;-63
2023/06/09 02:04:18;;;;;;;11.00;8.02;;;;;;;23.33;76.45;99803.16;5094021;28;20044;-63
2023/06/09 02:06:47;;;;;;;10.65;7.75;;;;;;;23.32;76.36;99798.75;5093929;28;20044;-63
2023/06/09 02:09:16;;;;;;;9.65;7.88;;;;;;;23.32;76.34;99804.19;5093619;28;20483;-63
2023/06/09 02:11:52;;;;;;;9.18;7.45;;;;;;;23.31;76.26;99806.06;5093782;28;20044;-63
2023/06/09 02:14:20;;;;;;;8.80;7.72;;;;;;;23.31;76.36;99806.06;5093490;28;20097;-62
2023/06/09 02:16:52;;;;;;;8.40;7.18;;;;;;;23.30;76.26;99812.53;5093829;28;20055;-63
2023/06/09 02:19:22;;;;;;;8.57;7.53;;;;;;;23.29;76.25;99816.28;5093438;28;20048;-62
2023/06/09 02:21:50;;;;;;;9.90;7.45;;;;;;;23.30;76.19;99807.09;5093432;28;20667;-63
2023/06/09 02:24:18;;;;;;;9.23;7.70;;;;;;;23.30;75.98;99806.25;5093431;28;20083;-62
2023/06/09 02:26:51;;;;;;;8.73;7.03;;;;;;;23.29;76.07;99816.28;5093351;28;20576;-63
2023/06/09 02:29:19;;;;;;;10.60;7.13;;;;;;;23.29;75.73;99808.13;5093699;28;20047;-63
2023/06/09 02:31:47;;;;;;;9.60;7.38;;;;;;;23.28;76.11;99803.72;5093432;28;20040;-62
2023/06/09 02:34:16;;;;;;;9.10;7.60;;;;;;;23.28;75.96;99814.63;5093344;28;20068;-63
2023/06/09 02:36:44;;;;;;;9.75;7.38;;;;;;;23.26;75.82;99808.50;5093042;28;20052;-63
2023/06/09 02:39:14;;;;;;;9.73;7.30;;;;;;;23.27;75.92;99807.47;5093190;28;20040;-63
2023/06/09 02:41:42;;;;;;;9.68;6.60;;;;;;;23.27;75.74;99809.34;5092947;28;20077;-63
2023/06/09 02:44:12;;;;;;;10.95;7.63;;;;;;;23.25;75.89;99804.06;5093184;28;20041;-62
2023/06/09 02:46:40;;;;;;;12.43;7.40;;;;;;;23.25;75.63;99809.50;5093090;28;20048;-63
2023/06/09 02:49:08;;;;;;;8.75;6.78;;;;;;;23.24;75.94;99812.44;5093051;28;20048;-63
2023/06/09 02:51:37;;;;;;;8.85;7.38;;;;;;;23.24;75.59;99816.00;5092966;28;20044;-63
2023/06/09 02:54:05;;;;;;;8.75;7.10;;;;;;;23.23;75.55;99810.75;5092952;28;20048;-63
2023/06/09 02:56:33;;;;;;;9.18;6.85;;;;;;;23.22;75.70;99809.91;5092883;28;20055;-63
2023/06/09 02:59:02;;;;;;;8.52;6.80;;;;;;;23.22;75.65;99815.34;5092835;28;20067;-63
2023/06/09 03:01:34;;;;;;;9.95;6.63;;;;;;;23.22;75.84;99809.91;5091794;28;20048;-63
2023/06/09 03:04:05;;;;;;;10.10;7.05;;;;;;;23.21;75.79;99802.78;5092705;28;20050;-63
2023/06/09 03:06:35;;;;;;;10.57;7.28;;;;;;;23.20;75.63;99801.09;5092567;28;20043;-62
2023/06/09 03:09:03;;;;;;;8.80;6.80;;;;;;;23.19;75.65;99799.41;5092436;28;20083;-63
2023/06/09 03:11:32;;;;;;;10.25;7.00;;;;;;;23.20;75.39;99803.81;5092780;28;20572;-63
2023/06/09 03:14:00;;;;;;;10.98;6.07;;;;;;;23.19;75.47;99804.00;5092566;28;20132;-62
2023/06/09 03:16:28;;;;;;;8.50;6.38;;;;;;;23.18;75.27;99805.88;5092537;28;20086;-63
2023/06/09 03:18:58;;;;;;;8.82;5.75;;;;;;;23.17;75.24;99806.91;5092358;28;20113;-63
2023/06/09 03:21:26;;;;;;;8.18;5.50;;;;;;;23.17;75.07;99811.50;5092541;28;20470;-63
2023/06/09 03:23:54;;;;;;;8.00;5.68;;;;;;;23.16;75.21;99807.91;5092672;28;20405;-63
2023/06/09 03:26:23;;;;;;;8.80;5.38;;;;;;;23.16;74.63;99815.22;5092497;28;20044;-63
2023/06/09 03:28:52;;;;;;;7.35;5.30;;;;;;;23.14;74.56;99808.09;5092441;28;20131;-63
2023/06/09 03:31:22;;;;;;;8.00;4.82;;;;;;;23.14;74.60;99810.81;5092102;28;20435;-63
2023/06/09 03:33:50;;;;;;;6.57;4.75;;;;;;;23.13;74.51;99822.72;5092431;28;20102;-63
2023/06/09 03:36:22;;;;;;;7.25;4.72;;;;;;;23.13;74.37;99813.72;5092199;28;20055;-63
2023/06/09 03:38:50;;;;;;;6.20;4.20;;;;;;;23.13;74.23;99811.00;5092216;28;20051;-63
2023/06/09 03:41:18;;;;;;;6.18;4.20;;;;;;;23.13;74.05;99816.44;5092161;28;20152;-63
2023/06/09 03:43:47;;;;;;;6.57;4.40;;;;;;;23.10;73.92;99814.09;5092082;28;20412;-62
2023/06/09 03:46:15;;;;;;;6.13;4.30;;;;;;;23.08;73.81;99797.13;5091968;28;20140;-63
2023/06/09 03:48:43;;;;;;;5.75;4.00;;;;;;;23.07;73.87;99807.16;5092156;28;20048;-63
2023/06/09 03:51:11;;;;;;;7.63;4.07;;;;;;;23.06;73.91;99802.72;5092076;28;20150;-62
2023/06/09 03:53:41;;;;;;;5.63;3.85;;;;;;;23.07;73.81;99806.31;5092129;28;20129;-63
2023/06/09 03:56:09;;;;;;;5.63;3.80;;;;;;;23.05;73.78;99816.50;5091874;28;20105;-62
2023/06/09 03:58:38;;;;;;;5.13;3.47;;;;;;;23.05;73.72;99808.34;5091780;28;20136;-62
2023/06/09 04:01:10;;;;;;;5.55;3.50;;;;;;;23.04;73.87;99823.81;5091575;28;20044;-63
2023/06/09 04:03:38;;;;;;;5.93;3.47;;;;;;;23.04;73.61;99820.25;5091883;28;20068;-63
2023/06/09 04:06:07;;;;;;;6.28;3.80;;;;;;;23.04;73.70;99817.53;5091825;28;20046;-63
2023/06/09 04:08:36;;;;;;;5.85;3.67;;;;;;;23.03;73.65;99818.56;5091468;28;20106;-63
2023/06/09 04:11:05;;;;;;;6.03;3.67;;;;;;;23.03;73.64;99816.69;5091363;28;20052;-63
2023/06/09 04:13:34;;;;;;;5.07;3.65;;;;;;;23.03;73.65;99826.72;5091435;28;20048;-63
2023/06/09 04:16:03;;;;;;;4.95;3.58;;;;;;;23.02;73.57;99825.03;5091487;28;20052;-63
2023/06/09 04:18:31;;;;;;;6.97;3.80;;;;;;;23.01;73.60;99826.91;5091657;28;20048;-63
2023/06/09 04:20:59;;;;;;;6.30;3.72;;;;;;;23.02;73.52;99822.31;5091492;28;20450;-63
2023/06/09 04:23:27;;;;;;;5.78;3.72;;;;;;;23.01;73.61;99823.34;5091183;28;20398;-63
2023/06/09 04:25:56;;;;;;;5.80;3.92;;;;;;;23.00;73.60;99833.38;5091411;28;20052;-63
2023/06/09 04:28:27;;;;;;;5.70;3.70;;;;;;;23.00;73.60;99832.53;5091755;28;20051;-63
2023/06/09 04:30:57;;;;;;;5.55;3.42;;;;;;;22.99;73.61;99833.56;5091432;28;20044;-63
2023/06/09 04:33:26;;;;;;;6.68;3.78;;;;;;;23.00;73.83;99843.44;5091208;28;20048;-63
2023/06/09 04:35:54;;;;;;;4.65;3.60;;;;;;;22.98;73.68;99848.22;5091153;28;20481;-63
2023/06/09 04:38:24;;;;;;;6.18;3.90;;;;;;;22.99;73.85;99844.47;5091045;28;20052;-63
2023/06/09 04:40:52;;;;;;;6.00;3.60;;;;;;;22.97;74.06;99843.75;5091058;28;20050;-63
2023/06/09 04:43:25;;;;;;;5.93;3.85;;;;;;;22.97;74.00;99849.22;5091365;28;20102;-63
2023/06/09 04:45:57;;;;;;;6.55;4.13;;;;;;;22.98;74.01;99845.47;5091257;28;20353;-63
2023/06/09 04:48:25;;;;;;;5.95;4.05;;;;;;;22.96;74.21;99851.09;5091040;28;20544;-64
2023/06/09 04:50:53;;;;;;;7.80;4.40;;;;;;;22.96;74.29;99850.22;5091029;28;20048;-63
2023/06/09 04:53:21;;;;;;;6.13;4.60;;;;;;;22.97;74.17;99849.22;5090895;28;20102;-63
2023/06/09 04:55:52;;;;;;;5.93;4.50;;;;;;;22.96;74.37;99853.81;5090853;28;20404;-63
2023/06/09 04:58:20;;;;;;;6.20;4.75;;;;;;;22.96;74.55;99859.25;5091253;28;20093;-63
2023/06/09 05:00:48;;;;;;;6.82;5.00;;;;;;;22.96;74.79;99858.41;5091076;28;20411;-63
2023/06/09 05:03:18;;;;;;;8.73;5.28;;;;;;;22.96;74.76;99858.41;5090979;28;20489;-63
2023/06/09 05:05:46;;;;;;;7.28;5.40;;;;;;;22.96;74.89;99852.97;5090839;28;20048;-63
2023/06/09 05:08:15;;;;;;;8.13;5.95;;;;;;;22.95;75.00;99856.72;5091010;28;20093;-63
2023/06/09 05:10:43;;;;;;;7.65;5.47;;;;;;;22.95;75.05;99851.25;5091178;28;20102;-63
2023/06/09 05:13:11;;;;;;;10.40;5.70;;;;;;;22.96;75.17;99858.41;5091142;28;20048;-64
2023/06/09 05:15:41;;;;;;;6.93;5.57;;;;;;;22.95;75.29;99859.44;5091053;28;20055;-63
2023/06/09 05:18:10;;;;;;;8.45;5.75;;;;;;;22.95;75.37;99852.13;5090677;28;20510;-64
2023/06/09 05:20:39;;;;;;;9.95;5.88;;;;;;;22.95;75.27;99862.16;5091184;28;20051;-63
2023/06/09 05:23:08;;;;;;;9.68;6.32;;;;;;;22.94;75.57;99864.03;5090913;28;20040;-63
2023/06/09 05:25:37;;;;;;;9.88;6.10;;;;;;;22.94;75.50;99864.03;5094443;28;20129;-63
2023/06/09 05:28:05;;;;;;;8.13;6.20;;;;;;;22.94;75.41;99865.91;5094537;28;20048;-61
2023/06/09 05:30:33;;;;;;;7.95;6.40;;;;;;;22.95;75.56;99867.59;5094352;28;20131;-62
2023/06/09 05:33:01;;;;;;;12.48;7.00;;;;;;;22.95;75.71;99875.75;5094887;28;20060;-63
2023/06/09 05:35:30;;;;;;;8.95;6.90;;;;;;;22.93;75.46;99875.94;5094419;28;20044;-63
2023/06/09 05:37:59;;;;;;;9.63;7.03;;;;;;;22.94;75.69;99868.63;5093915;28;20412;-63
2023/06/09 05:40:27;;;;;;;9.98;7.05;;;;;;;22.93;75.67;99873.22;5093971;28;20085;-63
2023/06/09 05:42:55;;;;;;;9.38;7.22;;;;;;;22.93;75.74;99875.94;5094064;28;20056;-63
2023/06/09 05:45:23;;;;;;;9.50;6.68;;;;;;;22.94;75.65;99882.22;5093855;28;20051;-63
2023/06/09 05:47:52;;;;;;;7.53;6.60;;;;;;;22.95;75.61;99882.03;5094131;28;20044;-63
2023/06/09 05:50:20;;;;;;;9.38;6.72;;;;;;;22.97;75.70;99865.53;5094039;28;20052;-63
2023/06/09 05:52:48;;;;;;;7.63;6.35;;;;;;;22.97;75.46;99860.97;5093796;28;20105;-63
2023/06/09 05:55:18;;;;;;;8.70;6.43;;;;;;;22.97;75.31;99852.81;5093646;28;20046;-63
2023/06/09 05:57:46;;;;;;;8.98;6.20;;;;;;;22.98;75.26;99856.38;5093601;28;20052;-63
2023/06/09 06:00:15;;;;;;;9.15;6.32;;;;;;;22.97;75.54;99857.38;5093671;28;20651;-62
2023/06/09 06:02:44;;;;;;;8.00;6.70;;;;;;;22.96;75.16;99858.41;5095239;28;20176;-63
2023/06/09 06:05:13;;;;;;;11.20;6.30;;;;;;;22.97;75.04;99855.53;5092338;28;20044;-63
2023/06/09 06:07:42;;;;;;;8.55;5.93;;;;;;;22.97;75.01;99865.53;5092981;28;20530;-63
2023/06/09 06:10:10;;;;;;;8.80;6.40;;;;;;;22.96;74.81;99858.41;5092811;28;20048;-63
2023/06/09 06:12:40;;;;;;;8.05;5.50;;;;;;;22.96;74.61;99870.13;5092721;28;20135;-63
2023/06/09 06:15:12;;;;;;;7.28;5.65;;;;;;;22.95;74.61;99883.91;5093416;28;20048;-63
2023/06/09 06:17:41;;;;;;;7.07;5.05;;;;;;;22.95;74.62;99890.19;5093260;28;20070;-63
2023/06/09 06:20:11;;;;;;;7.13;4.78;;;;;;;22.94;74.33;99898.53;5092869;28;20554;-63
2023/06/09 06:22:41;;;;;;;6.32;4.97;;;;;;;22.93;74.40;99897.69;5092609;28;20048;-63
2023/06/09 06:25:13;;;;;;;7.22;5.03;;;;;;;22.93;74.26;99914.00;5092821;28;20446;-63
2023/06/09 06:27:43;;;;;;;6.93;4.70;;;;;;;22.93;74.26;99922.16;5092438;28;20119;-63
2023/06/09 06:30:15;;;;;;;7.75;4.78;;;;;;;22.93;74.03;99926.75;5092954;28;20050;-63
2023/06/09 06:32:50;;;;;;;7.53;4.90;;;;;;;22.92;74.15;99941.38;5092598;28;20127;-63
2023/06/09 06:35:26;;;;;;;6.90;4.68;;;;;;;22.91;74.15;99926.09;5092378;28;20067;-64
2023/06/09 06:37:54;;;;;;;6.57;4.65;;;;;;;22.91;74.11;99913.34;5092791;28;20064;-63
2023/06/09 06:40:23;;;;;;;6.95;4.60;;;;;;;22.90;73.93;99908.09;5092640;28;20052;-64
2023/06/09 06:42:52;;;;;;;7.38;4.50;;;;;;;22.89;73.96;99915.41;5092308;28;20101;-64
2023/06/09 06:45:22;;;;;;;8.23;4.70;;;;;;;22.89;73.95;99925.44;5092447;28;20040;-63
2023/06/09 06:47:51;;;;;;;6.40;4.40;;;;;;;22.89;73.75;99930.88;5092230;28;20079;-63
2023/06/09 06:50:20;;;;;;;7.25;4.72;;;;;;;22.88;73.61;99931.91;5092161;28;20054;-63
2023/06/09 06:52:52;;;;;;;8.05;4.88;;;;;;;22.86;73.59;99929.34;5091940;28;20090;-63
2023/06/09 06:55:20;;;;;;;7.45;4.38;;;;;;;22.86;73.50;99923.91;5092340;28;20055;-62
2023/06/09 06:57:49;;;;;;;7.30;4.18;;;;;;;22.84;73.54;99924.09;5092436;28;20044;-63
2023/06/09 07:00:19;;;;;;;8.20;4.05;;;;;;;22.84;73.48;99931.41;5092582;28;20131;-63
2023/06/09 07:02:48;;;;;;;8.02;4.30;;;;;;;22.83;73.49;99925.09;5091943;28;20040;-66
2023/06/09 07:05:17;;;;;;;7.30;4.13;;;;;;;22.83;73.41;99933.25;5092456;28;20055;-63
2023/06/09 07:07:45;;;;;;;7.35;4.15;;;;;;;22.82;73.35;99931.53;5092186;28;20056;-63
2023/06/09 07:10:15;;;;;;;6.55;3.97;;;;;;;22.82;73.36;99925.25;5092218;28;20040;-63
2023/06/09 07:12:43;;;;;;;7.85;3.90;;;;;;;22.81;73.22;99937.16;5091985;28;20109;-65
2023/06/09 07:15:14;;;;;;;7.25;3.50;;;;;;;22.80;73.26;99924.59;5091962;28;20493;-63
2023/06/09 07:17:44;;;;;;;5.85;3.60;;;;;;;22.79;73.25;99918.31;5091776;28;20044;-65
2023/06/09 07:20:12;;;;;;;7.40;3.85;;;;;;;22.78;73.19;99913.91;5091865;28;20535;-65
2023/06/09 07:22:41;;;;;;;5.70;3.45;;;;;;;22.78;73.18;99900.31;5091507;28;20433;-65
2023/06/09 07:25:10;;;;;;;6.90;3.17;;;;;;;22.78;73.25;99904.91;5091730;28;20050;-65
2023/06/09 07:27:38;;;;;;;6.38;3.40;;;;;;;22.78;73.34;99899.47;5091748;28;20051;-62
2023/06/09 07:30:09;;;;;;;6.63;3.58;;;;;;;22.77;73.40;99892.31;5091882;28;20060;-64
2023/06/09 07:32:39;;;;;;;5.50;2.90;;;;;;;22.77;73.43;99897.75;5091283;28;20554;-63
2023/06/09 07:35:12;;;;;;;6.75;3.22;;;;;;;22.76;73.43;99896.06;5091633;28;20099;-63
2023/06/09 07:37:42;;;;;;;5.25;3.10;;;;;;;22.77;73.32;99892.31;5091427;28;20048;-63
2023/06/09 07:40:11;;;;;;;5.35;3.25;;;;;;;22.76;73.65;99893.34;5091722;28;20048;-63
2023/06/09 07:42:48;;;;;;;6.13;3.08;;;;;;;22.75;73.56;99888.94;5091326;28;20441;-64
2023/06/09 07:45:17;;;;;;;6.68;3.08;;;;;;;22.74;73.64;99888.09;5091628;28;20460;-63
2023/06/09 07:47:45;;;;;;;6.03;3.00;;;;;;;22.74;73.70;99888.09;5090895;28;20082;-64
2023/06/09 07:50:15;;;;;;;5.35;2.88;;;;;;;22.75;73.79;99888.94;5091695;28;20109;-63
2023/06/09 07:52:43;;;;;;;5.97;2.97;;;;;;;22.74;73.86;99892.69;5091185;28;20055;-63
2023/06/09 07:55:11;;;;;;;4.55;2.47;;;;;;;22.74;73.90;99882.66;5091318;28;20084;-64
2023/06/09 07:57:43;;;;;;;5.80;2.72;;;;;;;22.72;73.97;99895.59;5091346;28;20040;-63
2023/06/09 08:00:13;;;;;;;6.57;3.00;;;;;;;22.73;73.95;99896.44;5091235;28;20052;-63
2023/06/09 08:02:42;;;;;;;4.80;2.75;;;;;;;22.73;73.95;99893.72;5091042;28;20082;-64
2023/06/09 08:05:11;;;;;;;4.40;2.83;;;;;;;22.72;73.91;99890.16;5091236;28;20040;-63
2023/06/09 08:07:41;;;;;;;7.10;2.70;;;;;;;22.72;73.99;99906.47;5091040;28;20051;-62
2023/06/09 08:10:10;;;;;;;6.72;2.85;;;;;;;22.72;73.96;99901.03;5091004;28;20058;-65
2023/06/09 08:12:39;;;;;;;5.85;2.80;;;;;;;22.72;74.20;99906.47;5091241;28;20054;-64
2023/06/09 08:15:11;;;;;;;5.05;2.60;;;;;;;22.72;74.05;99897.47;5091124;28;20044;-64
2023/06/09 08:17:39;;;;;;;4.75;2.72;;;;;;;22.72;74.02;99905.63;5091345;28;20055;-64
2023/06/09 08:20:08;;;;;;;5.03;2.50;;;;;;;22.71;74.14;99903.91;5091054;28;20089;-66
2023/06/09 08:22:37;;;;;;;4.30;2.58;;;;;;;22.70;74.22;99903.06;5091109;28;20052;-65
2023/06/09 08:25:11;;;;;;;5.68;2.80;;;;;;;22.70;74.20;99903.06;5091176;28;20412;-65
2023/06/09 08:27:39;;;;;;;5.10;2.67;;;;;;;22.71;74.27;99910.19;5091054;28;20428;-63
2023/06/09 08:30:08;;;;;;;5.65;2.35;;;;;;;22.71;74.01;99912.94;5091182;28;20040;-63
2023/06/09 08:32:39;;;;;;;4.68;2.65;;;;;;;22.70;74.17;99913.94;5090657;28;20398;-63
2023/06/09 08:35:08;;;;;;;5.32;2.70;;;;;;;22.71;74.37;99915.66;5090832;28;20044;-63
2023/06/09 08:37:37;;;;;;;4.75;2.47;;;;;;;22.72;74.35;99916.50;5091067;28;20070;-63
2023/06/09 08:40:08;;;;;;;4.63;2.50;;;;;;;22.71;74.32;99921.09;5090617;28;20048;-63
2023/06/09 08:42:39;;;;;;;6.10;2.72;;;;;;;22.72;74.49;99928.22;5090686;28;20044;-64
2023/06/09 08:45:08;;;;;;;4.68;2.20;;;;;;;22.71;74.51;99931.94;5090679;28;20097;-64
2023/06/09 08:47:44;;;;;;;4.97;2.80;;;;;;;22.73;74.75;99929.06;5090973;28;20052;-64
2023/06/09 08:50:16;;;;;;;4.82;2.55;;;;;;;22.72;74.64;99939.09;5091191;28;20691;-63
2023/06/09 08:52:45;;;;;;;4.55;2.38;;;;;;;22.72;74.79;99936.38;5091406;28;20055;-64
2023/06/09 08:55:14;;;;;;;5.05;2.47;;;;;;;22.72;74.86;99944.53;5091254;28;20048;-63
2023/06/09 08:57:43;;;;;;;4.57;2.33;;;;;;;22.73;74.93;99940.78;5091055;28;20070;-63
2023/06/09 09:00:12;;;;;;;4.65;2.40;;;;;;;22.72;74.56;99944.53;5094320;28;20079;-64
2023/06/09 09:02:43;;;;;;;4.40;2.50;;;;;;;22.73;74.98;99945.38;5094883;28;20056;-64
2023/06/09 09:05:11;;;;;;;6.00;2.40;;;;;;;22.76;74.88;99945.00;5094814;28;20040;-66
2023/06/09 09:07:44;;;;;;;4.18;2.10;;;;;;;22.75;74.89;99941.44;5094596;28;20103;-63
2023/06/09 09:10:13;;;;;;;5.70;2.22;;;;;;;22.76;74.88;99936.84;5094482;28;20052;-68
2023/06/09 09:12:50;;;;;;;6.03;2.50;;;;;;;22.77;74.97;99938.53;5094593;28;20136;-64
2023/06/09 09:15:19;;;;;;;4.55;2.60;;;;;;;22.78;75.03;99932.09;5094714;28;20048;-64
2023/06/09 09:17:48;;;;;;;4.15;2.30;;;;;;;22.78;75.06;99937.53;5094745;28;20408;-62
2023/06/09 09:20:16;;;;;;;4.15;2.28;;;;;;;22.79;75.05;99934.63;5094388;28;20083;-64
2023/06/09 09:22:47;;;;;;;5.50;2.40;;;;;;;22.79;75.19;99926.47;5094523;28;20136;-63
2023/06/09 09:25:22;;;;;;;5.35;2.50;;;;;;;22.80;75.48;99930.03;5094688;28;20044;-64
2023/06/09 09:28:06;;;;;;;4.82;2.28;;;;;;;22.81;75.21;99931.72;5094671;28;20262;-64
2023/06/09 09:30:48;;;;;;;5.20;2.35;;;;;;;22.82;75.43;99931.53;5094335;28;20052;-64
2023/06/09 09:33:20;;;;;;;4.05;2.20;;;;;;;22.83;75.26;99929.66;5094382;28;20512;-64
2023/06/09 09:35:50;;;;;;;4.57;2.25;;;;;;;22.83;75.11;99930.53;5094663;28;20105;-64
2023/06/09 09:38:21;;;;;;;5.90;2.50;;;;;;;22.85;74.96;99927.66;5094655;28;20095;-64
2023/06/09 09:40:51;;;;;;;4.35;2.15;;;;;;;22.85;74.88;99928.50;5094274;28;20055;-63
2023/06/09 09:43:21;;;;;;;4.68;2.50;;;;;;;22.87;74.99;99930.19;5094132;28;20048;-64
2023/06/09 09:45:52;;;;;;;4.45;2.10;;;;;;;22.88;75.11;99926.47;5093915;28;20510;-63
2023/06/09 09:48:23;;;;;;;6.13;2.47;;;;;;;22.88;75.22;99929.19;5093990;28;20525;-63
2023/06/09 09:50:53;;;;;;;5.63;2.30;;;;;;;22.88;75.05;99923.75;5094063;28;20048;-62
2023/06/09 09:53:22;;;;;;;4.28;2.10;;;;;;;22.89;75.25;99925.44;5094063;28;20048;-64
2023/06/09 09:55:53;;;;;;;4.60;2.33;;;;;;;22.90;75.10;99924.41;5094055;28;20047;-64
2023/06/09 09:58:30;;;;;;;3.60;2.08;;;;;;;22.90;75.02;99918.97;5093747;28;20052;-64
2023/06/09 10:01:00;;;;;;;4.35;2.33;;;;;;;22.90;75.11;99914.38;5093776;28;20605;-64
2023/06/09 10:03:29;;;;;;;4.53;2.63;;;;;;;22.91;75.45;99916.06;5093957;28;20085;-63
2023/06/09 10:06:01;;;;;;;4.20;2.40;;;;;;;22.91;75.45;99910.63;5093697;28;20052;-64
2023/06/09 10:08:31;;;;;;;3.47;2.30;;;;;;;22.91;75.39;99905.19;5093339;28;20576;-64
2023/06/09 10:11:00;;;;;;;4.13;2.40;;;;;;;22.91;75.43;99913.34;5092834;28;20079;-64
2023/06/09 10:13:30;;;;;;;4.72;2.17;;;;;;;22.92;75.24;99906.03;5093461;28;20052;-64
2023/06/09 10:15:59;;;;;;;5.22;2.10;;;;;;;22.94;75.40;99909.41;5093432;28;20044;-63
2023/06/09 10:18:28;;;;;;;3.25;2.15;;;;;;;22.94;75.23;99901.25;5093432;28;20048;-64
2023/06/09 10:20:56;;;;;;;5.18;2.40;;;;;;;22.94;75.43;99895.81;5093147;28;20048;-64
2023/06/09 10:23:25;;;;;;;4.35;2.20;;;;;;;22.95;75.28;99902.94;5093427;28;20137;-64
2023/06/09 10:25:53;;;;;;;3.47;2.13;;;;;;;22.95;75.00;99906.50;5093485;28;20051;-64
2023/06/09 10:28:21;;;;;;;4.78;2.22;;;;;;;22.96;75.16;99907.34;5093425;28;20051;-64
2023/06/09 10:30:51;;;;;;;4.03;2.20;;;;;;;22.96;75.32;99896.47;5093288;28;20052;-64
2023/06/09 10:33:22;;;;;;;3.58;2.17;;;;;;;22.97;74.98;99884.56;5093296;28;20094;-63
2023/06/09 10:35:56;;;;;;;4.45;2.30;;;;;;;22.98;75.07;99894.44;5093213;28;20040;-64
2023/06/09 10:38:28;;;;;;;3.67;2.10;;;;;;;22.97;75.17;99893.59;5093344;28;20047;-64
2023/06/09 10:41:09;;;;;;;4.23;2.43;;;;;;;22.99;74.95;99891.53;5092956;28;20098;-64
2023/06/09 10:44:07;;;;;;;3.45;2.05;;;;;;;22.99;74.92;99894.25;5093024;28;20058;-64
2023/06/09 10:46:42;;;;;;;4.47;2.45;;;;;;;23.00;75.12;99895.09;5092763;28;20086;-63
2023/06/09 10:49:36;;;;;;;3.15;2.30;;;;;;;23.00;75.05;99876.91;5093037;28;20147;-64
2023/06/09 10:52:05;;;;;;;4.03;2.55;;;;;;;23.01;75.01;99888.63;5093119;28;20048;-64
2023/06/09 10:54:35;;;;;;;3.60;2.40;;;;;;;23.01;74.82;99884.03;5092868;28;20055;-64
2023/06/09 10:57:06;;;;;;;4.20;2.60;;;;;;;23.02;74.76;99882.16;5092491;28;20074;-64
2023/06/09 11:02:53;;;;;;;4.22;2.80;;;;;;;23.03;74.89;99870.25;5090910;28;20054;-63
2023/06/09 11:05:22;;;;;;;3.88;2.65;;;;;;;23.04;74.89;99877.38;5092497;28;20400;-65
2023/06/09 11:07:52;;;;;;;4.00;2.50;;;;;;;23.03;74.75;99870.25;5092762;28;20502;-64
2023/06/09 11:10:29;;;;;;;3.83;2.10;;;;;;;23.04;74.84;99866.50;5092598;28;20369;-64
2023/06/09 11:12:58;;;;;;;3.92;2.63;;;;;;;23.04;74.94;99861.06;5092369;28;20489;-64
2023/06/09 11:15:57;;;;;;;4.80;2.90;;;;;;;23.04;74.83;99861.06;5092330;28;20040;-64
2023/06/09 11:18:28;;;;;;;4.22;2.55;;;;;;;23.07;74.83;99868.88;5092854;28;20044;-64
2023/06/09 11:21:11;;;;;;;4.97;3.42;;;;;;;23.07;74.97;99866.16;5091581;28;20051;-64
2023/06/09 11:24:01;;;;;;;4.32;2.83;;;;;;;23.09;75.16;99869.53;5092237;28;20044;-65
2023/06/09 11:26:30;;;;;;;4.45;2.70;;;;;;;23.09;75.10;99861.38;5091980;28;20048;-64
2023/06/09 11:28:59;;;;;;;4.35;2.83;;;;;;;23.10;75.14;99865.78;5092330;28;20637;-64
2023/06/09 11:31:28;;;;;;;4.35;2.90;;;;;;;23.10;75.18;99871.22;5092227;28;20044;-64
2023/06/09 11:33:58;;;;;;;4.10;2.92;;;;;;;23.11;75.01;99859.31;5092198;28;20048;-68
2023/06/09 11:36:30;;;;;;;5.15;3.10;;;;;;;23.11;74.92;99862.88;5092112;28;20433;-64
2023/06/09 11:39:07;;;;;;;5.20;3.00;;;;;;;23.12;74.86;99869.16;5092069;28;20354;-64
2023/06/09 11:41:35;;;;;;;4.40;2.97;;;;;;;23.12;74.91;99861.84;5091670;28;20093;-64
2023/06/09 11:44:03;;;;;;;4.40;2.75;;;;;;;23.14;74.51;99861.66;5092051;28;20048;-64
2023/06/09 11:46:35;;;;;;;3.78;2.60;;;;;;;23.15;74.75;99863.34;5091901;28;20052;-64
2023/06/09 11:49:07;;;;;;;4.32;2.78;;;;;;;23.16;74.30;99859.59;5091813;28;20044;-64
2023/06/09 11:51:58;;;;;;;4.55;2.88;;;;;;;23.17;74.46;99865.91;5091837;28;20504;-64